sensor_id;sensor_type;location;lat;lon;timestamp;P1;P2;P0
45312;PMS7003;68267;51.540;5.854;2023-04-24T00:00:46;8.29;10.8;10.04
45312;PMS7003;68267;51.540;5.854;2023-04-24T00:14:05;12.49;14.62;13.96
45312;PMS7003;68267;51.540;5.854;2023-04-24T00:27:25;17.17;17.45;16.8
45312;PMS7003;68267;51.540;5.854;2023-04-24T00:40:45;15.97;17.78;16.25
45312;PMS7003;68267;51.540;5.854;2023-04-24T00:54:05;15.25;15.81;14.83
45312;PMS7003;68267;51.540;5.854;2023-04-24T01:07:24;13.45;15.49;14.83
45312;PMS7003;68267;51.540;5.854;2023-04-24T01:20:44;15.85;17.67;16.25
45312;PMS7003;68267;51.540;5.854;2023-04-24T01:34:04;18.01;18.76;17.78
45312;PMS7003;68267;51.540;5.854;2023-04-24T01:47:24;19.81;21.26;19.63
45312;PMS7003;68267;51.540;5.854;2023-04-24T02:00:43;21.25;22.57;20.39
45312;PMS7003;68267;51.540;5.854;2023-04-24T02:14:03;22.45;23.34;21.37
45312;PMS7003;68267;51.540;5.854;2023-04-24T02:27:23;25.57;25.41;23.34
45312;PMS7003;68267;51.540;5.854;2023-04-24T02:40:42;25.21;25.3;23.12
45312;PMS7003;68267;51.540;5.854;2023-04-24T02:54:02;23.77;24.86;23.12
45312;PMS7003;68267;51.540;5.854;2023-04-24T03:07:22;26.17;25.19;23.44
45312;PMS7003;68267;51.540;5.854;2023-04-24T03:20:42;22.09;23.34;21.48
45312;PMS7003;68267;51.540;5.854;2023-04-24T03:34:01;21.85;22.25;19.96
45312;PMS7003;68267;51.540;5.854;2023-04-24T03:47:21;19.09;20.61;18.98
45312;PMS7003;68267;51.540;5.854;2023-04-24T04:00:41;17.29;18.98;17.89
45312;PMS7003;68267;51.540;5.854;2023-04-24T04:14:00;18.85;20.07;17.99
45312;PMS7003;68267;51.540;5.854;2023-04-24T04:27:20;15.49;17.34;16.58
45312;PMS7003;68267;51.540;5.854;2023-04-24T04:40:40;17.53;18.21;17.34
45312;PMS7003;68267;51.540;5.854;2023-04-24T04:53:59;14.89;16.8;15.92
45312;PMS7003;68267;51.540;5.854;2023-04-24T05:07:19;13.93;15.92;15.38
45312;PMS7003;68267;51.540;5.854;2023-04-24T05:20:39;13.81;15.81;15.05
45312;PMS7003;68267;51.540;5.854;2023-04-24T05:33:59;14.41;16.36;15.38
45312;PMS7003;68267;51.540;5.854;2023-04-24T05:47:18;12.73;14.83;14.07
45312;PMS7003;68267;51.540;5.854;2023-04-24T06:00:38;11.53;12.44;11.67
45312;PMS7003;68267;51.540;5.854;2023-04-24T06:13:58;4.45;7.31;7.09
45312;PMS7003;68267;51.540;5.854;2023-04-24T06:27:18;1.8;4.91;4.8
45312;PMS7003;68267;51.540;5.854;2023-04-24T06:40:37;1.2;4.37;4.15
45312;PMS7003;68267;51.540;5.854;2023-04-24T06:53:57;2.4;5.46;5.24
45312;PMS7003;68267;51.540;5.854;2023-04-24T07:07:17;1.92;5.02;4.91
45312;PMS7003;68267;51.540;5.854;2023-04-24T07:20:36;0.6;3.82;3.5
45312;PMS7003;68267;51.540;5.854;2023-04-24T07:33:56;2.04;5.13;5.02
45312;PMS7003;68267;51.540;5.854;2023-04-24T07:47:16;8.77;11.24;10.69
45312;PMS7003;68267;51.540;5.854;2023-04-24T08:00:36;11.65;13.85;12.76
45312;PMS7003;68267;51.540;5.854;2023-04-24T08:13:55;9.85;12.22;11.24
45312;PMS7003;68267;51.540;5.854;2023-04-24T08:27:15;12.85;13.53;12.11
45312;PMS7003;68267;51.540;5.854;2023-04-24T08:40:35;12.25;12.98;11.13
45312;PMS7003;68267;51.540;5.854;2023-04-24T08:53:54;10.21;12.54;10.47
45312;PMS7003;68267;51.540;5.854;2023-04-24T09:07:14;10.81;9.93;8.29
45312;PMS7003;68267;51.540;5.854;2023-04-24T09:20:33;10.69;8.73;6.88
45312;PMS7003;68267;51.540;5.854;2023-04-24T09:33:53;8.77;8.51;6.33
45312;PMS7003;68267;51.540;5.854;2023-04-24T09:47:13;8.41;8.18;6.11
45312;PMS7003;68267;51.540;5.854;2023-04-24T10:00:32;7.09;6.99;5.68
45312;PMS7003;68267;51.540;5.854;2023-04-24T10:13:52;9.13;6.33;4.91
45312;PMS7003;68267;51.540;5.854;2023-04-24T10:27:11;12.61;6.99;5.13
45312;PMS7003;68267;51.540;5.854;2023-04-24T10:40:31;9.25;8.51;5.9
45312;PMS7003;68267;51.540;5.854;2023-04-24T10:53:51;6.97;5.02;3.61
45312;PMS7003;68267;51.540;5.854;2023-04-24T11:07:10;0.01;2.19;1.97
45312;PMS7003;68267;51.540;5.854;2023-04-24T11:20:30;1.2;2.41;1.86
45312;PMS7003;68267;51.540;5.854;2023-04-24T11:33:49;0.01;2.95;2.08
45312;PMS7003;68267;51.540;5.854;2023-04-24T11:47:09;0.01;2.19;1.86
45312;PMS7003;68267;51.540;5.854;2023-04-24T12:00:29;0.01;2.08;1.64
45312;PMS7003;68267;51.540;5.854;2023-04-24T12:13:49;0.01;2.08;1.64
45312;PMS7003;68267;51.540;5.854;2023-04-24T12:27:08;0.01;2.62;1.75
45312;PMS7003;68267;51.540;5.854;2023-04-24T12:40:28;8.53;2.73;1.97
45312;PMS7003;68267;51.540;5.854;2023-04-24T12:53:48;5.77;2.3;1.97
45312;PMS7003;68267;51.540;5.854;2023-04-24T13:07:07;0.01;2.3;1.64
45312;PMS7003;68267;51.540;5.854;2023-04-24T13:20:27;0.01;1.86;1.64
45312;PMS7003;68267;51.540;5.854;2023-04-24T13:33:47;3.24;2.41;1.86
45312;PMS7003;68267;51.540;5.854;2023-04-24T13:47:06;0.01;1.86;1.75
45312;PMS7003;68267;51.540;5.854;2023-04-24T14:00:26;4.69;2.73;2.08
45312;PMS7003;68267;51.540;5.854;2023-04-24T14:13:46;0.01;2.52;2.3
45312;PMS7003;68267;51.540;5.854;2023-04-24T14:27:05;0.01;3.17;2.41
45312;PMS7003;68267;51.540;5.854;2023-04-24T14:40:25;0.24;3.5;2.84
45312;PMS7003;68267;51.540;5.854;2023-04-24T14:53:45;0.01;3.06;2.52
45312;PMS7003;68267;51.540;5.854;2023-04-24T15:07:05;0.01;2.52;2.19
45312;PMS7003;68267;51.540;5.854;2023-04-24T15:20:24;0.01;2.62;2.19
45312;PMS7003;68267;51.540;5.854;2023-04-24T15:33:44;0.01;3.06;2.52
45312;PMS7003;68267;51.540;5.854;2023-04-24T15:47:04;0.01;2.62;2.19
45312;PMS7003;68267;51.540;5.854;2023-04-24T16:00:24;0.24;3.5;2.73
45312;PMS7003;68267;51.540;5.854;2023-04-24T16:13:44;6.25;4.8;4.04
45312;PMS7003;68267;51.540;5.854;2023-04-24T16:27:04;2.76;5.79;4.15
45312;PMS7003;68267;51.540;5.854;2023-04-24T16:40:23;1.8;4.91;3.71
45312;PMS7003;68267;51.540;5.854;2023-04-24T16:53:43;1.92;5.02;4.04
45312;PMS7003;68267;51.540;5.854;2023-04-24T17:07:03;1.8;4.91;3.82
45312;PMS7003;68267;51.540;5.854;2023-04-24T17:20:23;6.97;5.57;4.04
45312;PMS7003;68267;51.540;5.854;2023-04-24T17:33:42;1.32;4.48;3.5
45312;PMS7003;68267;51.540;5.854;2023-04-24T17:47:02;7.33;4.7;3.5
45312;PMS7003;68267;51.540;5.854;2023-04-24T18:00:21;2.04;5.13;3.71
45312;PMS7003;68267;51.540;5.854;2023-04-24T18:13:41;1.92;5.02;4.37
45312;PMS7003;68267;51.540;5.854;2023-04-24T18:27:01;9.13;7.09;5.68
45312;PMS7003;68267;51.540;5.854;2023-04-24T18:40:20;7.45;8.08;5.46
45312;PMS7003;68267;51.540;5.854;2023-04-24T18:53:40;6.49;7.09;5.57
45312;PMS7003;68267;51.540;5.854;2023-04-24T19:07:00;5.53;8.29;6.66
45312;PMS7003;68267;51.540;5.854;2023-04-24T19:20:19;7.69;8.62;6.88
45312;PMS7003;68267;51.540;5.854;2023-04-24T19:33:39;7.33;9.93;7.2
45312;PMS7003;68267;51.540;5.854;2023-04-24T19:46:59;10.69;9.49;7.09
45312;PMS7003;68267;51.540;5.854;2023-04-24T20:00:18;6.61;9.27;7.42
45312;PMS7003;68267;51.540;5.854;2023-04-24T20:13:38;7.57;9.27;6.88
45312;PMS7003;68267;51.540;5.854;2023-04-24T20:26:58;4.81;7.64;6.44
45312;PMS7003;68267;51.540;5.854;2023-04-24T20:40:18;8.65;9.17;6.22
45312;PMS7003;68267;51.540;5.854;2023-04-24T20:53:37;5.77;8.51;6.55
45312;PMS7003;68267;51.540;5.854;2023-04-24T21:06:57;11.41;9.17;7.64
45312;PMS7003;68267;51.540;5.854;2023-04-24T21:20:17;8.29;8.51;6.66
45312;PMS7003;68267;51.540;5.854;2023-04-24T21:33:37;9.61;9.38;6.88
45312;PMS7003;68267;51.540;5.854;2023-04-24T21:46:56;11.05;9.49;6.55
45312;PMS7003;68267;51.540;5.854;2023-04-24T22:00:16;13.09;9.49;6.55
45312;PMS7003;68267;51.540;5.854;2023-04-24T22:13:36;8.65;8.51;6.33
45312;PMS7003;68267;51.540;5.854;2023-04-24T22:40:15;6.61;9.27;6.77
45312;PMS7003;68267;51.540;5.854;2023-04-24T22:53:35;14.41;8.84;6.66
45312;PMS7003;68267;51.540;5.854;2023-04-24T23:06:55;8.77;9.27;6.77
45312;PMS7003;68267;51.540;5.854;2023-04-24T23:20:14;8.65;9.38;6.44
45312;PMS7003;68267;51.540;5.854;2023-04-24T23:33:34;6.49;9.17;5.9
45312;PMS7003;68267;51.540;5.854;2023-04-24T23:46:54;5.53;7.2;5.35
